sensor_id;sensor_type;location;lat;lon;timestamp;P1;durP1;ratioP1;P2;durP2;ratioP2
30543;SDS011;43388;46.308;4.600;2023-06-14T00:01:50;11.55;;;8.32;;
30543;SDS011;43388;46.308;4.600;2023-06-14T00:04:17;8.85;;;7.95;;
30543;SDS011;43388;46.308;4.600;2023-06-14T00:06:44;12.27;;;8.38;;
30543;SDS011;43388;46.308;4.600;2023-06-14T00:09:10;11.02;;;8.13;;
30543;SDS011;43388;46.308;4.600;2023-06-14T00:11:38;11.10;;;8.85;;
30543;SDS011;43388;46.308;4.600;2023-06-14T00:14:04;10.55;;;7.72;;
30543;SDS011;43388;46.308;4.600;2023-06-14T00:16:30;9.60;;;8.43;;
30543;SDS011;43388;46.308;4.600;2023-06-14T00:18:58;11.82;;;7.75;;
30543;SDS011;43388;46.308;4.600;2023-06-14T00:21:24;12.35;;;8.82;;
30543;SDS011;43388;46.308;4.600;2023-06-14T00:23:53;11.32;;;8.43;;
30543;SDS011;43388;46.308;4.600;2023-06-14T00:26:20;9.48;;;8.57;;
30543;SDS011;43388;46.308;4.600;2023-06-14T00:28:46;9.70;;;8.90;;
30543;SDS011;43388;46.308;4.600;2023-06-14T00:31:12;11.77;;;8.65;;
30543;SDS011;43388;46.308;4.600;2023-06-14T00:33:38;12.23;;;9.13;;
30543;SDS011;43388;46.308;4.600;2023-06-14T00:36:04;9.40;;;8.55;;
30543;SDS011;43388;46.308;4.600;2023-06-14T00:38:30;10.32;;;9.10;;
30543;SDS011;43388;46.308;4.600;2023-06-14T00:40:56;9.55;;;8.60;;
30543;SDS011;43388;46.308;4.600;2023-06-14T00:43:22;9.35;;;8.20;;
30543;SDS011;43388;46.308;4.600;2023-06-14T00:45:48;11.65;;;8.23;;
30543;SDS011;43388;46.308;4.600;2023-06-14T00:48:16;7.53;;;6.82;;
30543;SDS011;43388;46.308;4.600;2023-06-14T00:50:42;7.93;;;6.57;;
30543;SDS011;43388;46.308;4.600;2023-06-14T00:53:10;7.25;;;6.43;;
30543;SDS011;43388;46.308;4.600;2023-06-14T00:55:36;9.85;;;6.32;;
30543;SDS011;43388;46.308;4.600;2023-06-14T00:58:02;8.00;;;6.45;;
30543;SDS011;43388;46.308;4.600;2023-06-14T01:00:28;7.30;;;6.50;;
30543;SDS011;43388;46.308;4.600;2023-06-14T01:02:55;8.93;;;6.47;;
30543;SDS011;43388;46.308;4.600;2023-06-14T01:05:21;8.60;;;6.72;;
30543;SDS011;43388;46.308;4.600;2023-06-14T01:15:31;7.80;;;7.00;;
30543;SDS011;43388;46.308;4.600;2023-06-14T01:17:57;11.15;;;7.20;;
30543;SDS011;43388;46.308;4.600;2023-06-14T01:20:29;9.35;;;6.60;;
30543;SDS011;43388;46.308;4.600;2023-06-14T01:22:56;8.10;;;6.80;;
30543;SDS011;43388;46.308;4.600;2023-06-14T01:25:22;7.18;;;6.40;;
30543;SDS011;43388;46.308;4.600;2023-06-14T01:27:50;11.07;;;7.32;;
30543;SDS011;43388;46.308;4.600;2023-06-14T01:30:17;7.18;;;6.57;;
30543;SDS011;43388;46.308;4.600;2023-06-14T01:32:43;7.50;;;6.00;;
30543;SDS011;43388;46.308;4.600;2023-06-14T01:35:10;8.68;;;6.80;;
30543;SDS011;43388;46.308;4.600;2023-06-14T01:37:36;8.48;;;6.22;;
30543;SDS011;43388;46.308;4.600;2023-06-14T01:40:05;11.13;;;6.57;;
30543;SDS011;43388;46.308;4.600;2023-06-14T01:42:33;9.55;;;6.78;;
30543;SDS011;43388;46.308;4.600;2023-06-14T01:44:59;8.88;;;6.95;;
30543;SDS011;43388;46.308;4.600;2023-06-14T01:47:26;7.55;;;6.63;;
30543;SDS011;43388;46.308;4.600;2023-06-14T01:49:52;12.25;;;7.28;;
30543;SDS011;43388;46.308;4.600;2023-06-14T01:52:19;9.23;;;6.65;;
30543;SDS011;43388;46.308;4.600;2023-06-14T01:54:47;8.32;;;7.47;;
30543;SDS011;43388;46.308;4.600;2023-06-14T01:57:14;8.88;;;7.20;;
30543;SDS011;43388;46.308;4.600;2023-06-14T01:59:41;7.38;;;6.60;;
30543;SDS011;43388;46.308;4.600;2023-06-14T02:02:07;12.52;;;7.45;;
30543;SDS011;43388;46.308;4.600;2023-06-14T02:04:33;9.07;;;7.88;;
30543;SDS011;43388;46.308;4.600;2023-06-14T02:06:59;11.32;;;7.88;;
30543;SDS011;43388;46.308;4.600;2023-06-14T02:09:25;8.30;;;7.50;;
30543;SDS011;43388;46.308;4.600;2023-06-14T02:11:51;8.45;;;7.65;;
30543;SDS011;43388;46.308;4.600;2023-06-14T02:14:17;7.78;;;7.03;;
30543;SDS011;43388;46.308;4.600;2023-06-14T02:16:43;9.68;;;7.15;;
30543;SDS011;43388;46.308;4.600;2023-06-14T02:19:17;7.75;;;6.95;;
30543;SDS011;43388;46.308;4.600;2023-06-14T02:21:43;13.85;;;7.43;;
30543;SDS011;43388;46.308;4.600;2023-06-14T02:24:09;10.82;;;7.45;;
30543;SDS011;43388;46.308;4.600;2023-06-14T02:26:36;9.70;;;7.82;;
30543;SDS011;43388;46.308;4.600;2023-06-14T02:29:03;7.72;;;6.97;;
30543;SDS011;43388;46.308;4.600;2023-06-14T02:31:30;8.95;;;6.72;;
30543;SDS011;43388;46.308;4.600;2023-06-14T02:33:56;8.63;;;6.22;;
30543;SDS011;43388;46.308;4.600;2023-06-14T02:36:22;7.82;;;7.05;;
30543;SDS011;43388;46.308;4.600;2023-06-14T02:38:49;8.82;;;7.38;;
30543;SDS011;43388;46.308;4.600;2023-06-14T02:41:15;8.50;;;7.50;;
30543;SDS011;43388;46.308;4.600;2023-06-14T02:43:41;7.47;;;6.70;;
30543;SDS011;43388;46.308;4.600;2023-06-14T02:46:07;8.00;;;7.25;;
30543;SDS011;43388;46.308;4.600;2023-06-14T02:48:33;11.10;;;6.78;;
30543;SDS011;43388;46.308;4.600;2023-06-14T02:50:59;8.75;;;6.78;;
30543;SDS011;43388;46.308;4.600;2023-06-14T02:53:25;7.85;;;6.30;;
30543;SDS011;43388;46.308;4.600;2023-06-14T02:55:51;7.55;;;6.85;;
30543;SDS011;43388;46.308;4.600;2023-06-14T02:58:17;9.70;;;7.03;;
30543;SDS011;43388;46.308;4.600;2023-06-14T03:00:44;10.10;;;7.45;;
30543;SDS011;43388;46.308;4.600;2023-06-14T03:03:10;8.15;;;6.63;;
30543;SDS011;43388;46.308;4.600;2023-06-14T03:05:43;11.90;;;7.18;;
30543;SDS011;43388;46.308;4.600;2023-06-14T03:08:14;9.48;;;6.97;;
30543;SDS011;43388;46.308;4.600;2023-06-14T03:10:50;8.23;;;7.38;;
30543;SDS011;43388;46.308;4.600;2023-06-14T03:13:16;8.32;;;7.22;;
30543;SDS011;43388;46.308;4.600;2023-06-14T03:15:45;8.73;;;7.50;;
30543;SDS011;43388;46.308;4.600;2023-06-14T03:18:12;8.38;;;7.00;;
30543;SDS011;43388;46.308;4.600;2023-06-14T03:20:40;9.90;;;7.05;;
30543;SDS011;43388;46.308;4.600;2023-06-14T03:23:06;7.53;;;6.82;;
30543;SDS011;43388;46.308;4.600;2023-06-14T03:25:32;8.38;;;7.55;;
30543;SDS011;43388;46.308;4.600;2023-06-14T03:28:03;7.75;;;7.15;;
30543;SDS011;43388;46.308;4.600;2023-06-14T03:30:30;7.95;;;7.15;;
30543;SDS011;43388;46.308;4.600;2023-06-14T03:32:57;7.97;;;7.18;;
30543;SDS011;43388;46.308;4.600;2023-06-14T03:35:26;15.52;;;7.40;;
30543;SDS011;43388;46.308;4.600;2023-06-14T03:37:52;11.20;;;7.07;;
30543;SDS011;43388;46.308;4.600;2023-06-14T03:40:18;8.45;;;7.57;;
30543;SDS011;43388;46.308;4.600;2023-06-14T03:42:50;8.63;;;7.00;;
30543;SDS011;43388;46.308;4.600;2023-06-14T03:45:16;7.88;;;7.15;;
30543;SDS011;43388;46.308;4.600;2023-06-14T03:47:42;8.52;;;7.18;;
30543;SDS011;43388;46.308;4.600;2023-06-14T03:50:08;8.32;;;7.53;;
30543;SDS011;43388;46.308;4.600;2023-06-14T03:52:35;9.70;;;7.60;;
30543;SDS011;43388;46.308;4.600;2023-06-14T03:55:01;9.85;;;7.13;;
30543;SDS011;43388;46.308;4.600;2023-06-14T03:57:29;8.55;;;6.97;;
30543;SDS011;43388;46.308;4.600;2023-06-14T03:59:55;10.65;;;7.53;;
30543;SDS011;43388;46.308;4.600;2023-06-14T04:02:21;7.95;;;6.78;;
30543;SDS011;43388;46.308;4.600;2023-06-14T04:04:47;8.15;;;7.00;;
30543;SDS011;43388;46.308;4.600;2023-06-14T04:07:16;8.70;;;7.07;;
30543;SDS011;43388;46.308;4.600;2023-06-14T04:09:44;10.93;;;7.25;;
30543;SDS011;43388;46.308;4.600;2023-06-14T04:12:10;7.50;;;6.55;;
30543;SDS011;43388;46.308;4.600;2023-06-14T04:14:36;9.55;;;7.15;;
30543;SDS011;43388;46.308;4.600;2023-06-14T04:17:03;7.20;;;6.50;;
30543;SDS011;43388;46.308;4.600;2023-06-14T04:19:29;7.68;;;6.97;;
30543;SDS011;43388;46.308;4.600;2023-06-14T04:21:55;7.88;;;7.10;;
30543;SDS011;43388;46.308;4.600;2023-06-14T04:24:22;8.88;;;6.95;;
30543;SDS011;43388;46.308;4.600;2023-06-14T04:26:48;8.38;;;7.32;;
30543;SDS011;43388;46.308;4.600;2023-06-14T04:29:14;9.90;;;6.68;;
30543;SDS011;43388;46.308;4.600;2023-06-14T04:31:44;7.28;;;6.63;;
30543;SDS011;43388;46.308;4.600;2023-06-14T04:34:10;10.25;;;7.13;;
30543;SDS011;43388;46.308;4.600;2023-06-14T04:36:40;13.38;;;7.13;;
30543;SDS011;43388;46.308;4.600;2023-06-14T04:39:16;7.35;;;6.65;;
30543;SDS011;43388;46.308;4.600;2023-06-14T04:41:43;11.30;;;6.65;;
30543;SDS011;43388;46.308;4.600;2023-06-14T04:44:09;8.85;;;6.47;;
30543;SDS011;43388;46.308;4.600;2023-06-14T04:46:35;10.35;;;6.93;;
30543;SDS011;43388;46.308;4.600;2023-06-14T04:49:20;9.73;;;7.20;;
30543;SDS011;43388;46.308;4.600;2023-06-14T04:51:48;8.75;;;7.38;;
30543;SDS011;43388;46.308;4.600;2023-06-14T04:54:22;8.82;;;6.70;;
30543;SDS011;43388;46.308;4.600;2023-06-14T04:56:50;8.32;;;7.53;;
30543;SDS011;43388;46.308;4.600;2023-06-14T04:59:16;9.73;;;7.50;;
30543;SDS011;43388;46.308;4.600;2023-06-14T05:01:43;6.90;;;6.30;;
30543;SDS011;43388;46.308;4.600;2023-06-14T05:04:13;9.07;;;6.72;;
30543;SDS011;43388;46.308;4.600;2023-06-14T05:06:40;7.30;;;6.50;;
30543;SDS011;43388;46.308;4.600;2023-06-14T05:09:07;7.28;;;6.55;;
30543;SDS011;43388;46.308;4.600;2023-06-14T05:11:33;9.77;;;7.45;;
30543;SDS011;43388;46.308;4.600;2023-06-14T05:13:59;7.47;;;6.50;;
30543;SDS011;43388;46.308;4.600;2023-06-14T05:16:25;7.10;;;6.38;;
30543;SDS011;43388;46.308;4.600;2023-06-14T05:18:52;9.05;;;7.45;;
30543;SDS011;43388;46.308;4.600;2023-06-14T05:21:18;7.75;;;7.03;;
30543;SDS011;43388;46.308;4.600;2023-06-14T05:23:44;6.95;;;6.40;;
30543;SDS011;43388;46.308;4.600;2023-06-14T05:26:10;10.98;;;7.40;;
30543;SDS011;43388;46.308;4.600;2023-06-14T05:28:36;8.90;;;7.20;;
30543;SDS011;43388;46.308;4.600;2023-06-14T05:31:03;6.93;;;6.22;;
30543;SDS011;43388;46.308;4.600;2023-06-14T05:33:29;14.35;;;6.53;;
30543;SDS011;43388;46.308;4.600;2023-06-14T05:35:55;11.80;;;6.18;;
30543;SDS011;43388;46.308;4.600;2023-06-14T05:38:21;9.25;;;6.30;;
30543;SDS011;43388;46.308;4.600;2023-06-14T05:40:47;8.05;;;6.75;;
30543;SDS011;43388;46.308;4.600;2023-06-14T05:43:13;7.75;;;6.93;;
30543;SDS011;43388;46.308;4.600;2023-06-14T05:45:39;8.05;;;6.38;;
30543;SDS011;43388;46.308;4.600;2023-06-14T05:48:05;7.70;;;6.35;;
30543;SDS011;43388;46.308;4.600;2023-06-14T05:50:31;8.40;;;6.82;;
30543;SDS011;43388;46.308;4.600;2023-06-14T05:52:57;6.72;;;6.13;;
30543;SDS011;43388;46.308;4.600;2023-06-14T05:55:23;11.13;;;5.88;;
30543;SDS011;43388;46.308;4.600;2023-06-14T05:57:50;7.25;;;6.25;;
30543;SDS011;43388;46.308;4.600;2023-06-14T06:00:16;7.10;;;6.40;;
30543;SDS011;43388;46.308;4.600;2023-06-14T06:02:43;12.25;;;7.30;;
30543;SDS011;43388;46.308;4.600;2023-06-14T06:05:10;8.38;;;6.72;;
30543;SDS011;43388;46.308;4.600;2023-06-14T06:07:36;12.50;;;6.45;;
30543;SDS011;43388;46.308;4.600;2023-06-14T06:10:03;14.52;;;6.82;;
30543;SDS011;43388;46.308;4.600;2023-06-14T06:12:29;9.30;;;6.97;;
30543;SDS011;43388;46.308;4.600;2023-06-14T06:14:55;9.32;;;7.25;;
30543;SDS011;43388;46.308;4.600;2023-06-14T06:17:22;8.02;;;7.00;;
30543;SDS011;43388;46.308;4.600;2023-06-14T06:19:48;8.48;;;7.25;;
30543;SDS011;43388;46.308;4.600;2023-06-14T06:22:14;10.65;;;7.78;;
30543;SDS011;43388;46.308;4.600;2023-06-14T06:24:40;8.60;;;7.72;;
30543;SDS011;43388;46.308;4.600;2023-06-14T06:27:06;9.70;;;8.70;;
30543;SDS011;43388;46.308;4.600;2023-06-14T06:29:33;13.25;;;9.40;;
30543;SDS011;43388;46.308;4.600;2023-06-14T06:31:59;16.42;;;11.50;;
30543;SDS011;43388;46.308;4.600;2023-06-14T06:34:26;18.13;;;11.30;;
30543;SDS011;43388;46.308;4.600;2023-06-14T06:36:52;15.23;;;10.50;;
30543;SDS011;43388;46.308;4.600;2023-06-14T06:39:18;16.83;;;11.57;;
30543;SDS011;43388;46.308;4.600;2023-06-14T06:41:44;15.10;;;12.02;;
30543;SDS011;43388;46.308;4.600;2023-06-14T06:44:10;16.30;;;11.52;;
30543;SDS011;43388;46.308;4.600;2023-06-14T06:46:36;14.40;;;11.80;;
30543;SDS011;43388;46.308;4.600;2023-06-14T06:49:05;14.40;;;12.38;;
30543;SDS011;43388;46.308;4.600;2023-06-14T06:51:31;14.85;;;13.27;;
30543;SDS011;43388;46.308;4.600;2023-06-14T06:53:57;15.80;;;12.90;;
30543;SDS011;43388;46.308;4.600;2023-06-14T06:56:23;16.25;;;13.38;;
30543;SDS011;43388;46.308;4.600;2023-06-14T06:58:50;15.65;;;12.60;;
30543;SDS011;43388;46.308;4.600;2023-06-14T07:01:17;12.65;;;10.63;;
30543;SDS011;43388;46.308;4.600;2023-06-14T07:03:44;12.38;;;10.85;;
30543;SDS011;43388;46.308;4.600;2023-06-14T07:06:10;14.32;;;11.32;;
30543;SDS011;43388;46.308;4.600;2023-06-14T07:08:37;10.82;;;9.68;;
30543;SDS011;43388;46.308;4.600;2023-06-14T07:11:06;11.75;;;10.23;;
30543;SDS011;43388;46.308;4.600;2023-06-14T07:13:32;15.65;;;10.50;;
30543;SDS011;43388;46.308;4.600;2023-06-14T07:15:58;12.25;;;9.88;;
30543;SDS011;43388;46.308;4.600;2023-06-14T07:18:27;15.13;;;11.55;;
30543;SDS011;43388;46.308;4.600;2023-06-14T07:20:53;14.13;;;11.40;;
30543;SDS011;43388;46.308;4.600;2023-06-14T07:23:21;12.32;;;9.18;;
30543;SDS011;43388;46.308;4.600;2023-06-14T07:25:47;18.83;;;12.07;;
30543;SDS011;43388;46.308;4.600;2023-06-14T07:28:13;14.30;;;11.02;;
30543;SDS011;43388;46.308;4.600;2023-06-14T07:30:39;22.67;;;11.27;;
30543;SDS011;43388;46.308;4.600;2023-06-14T07:33:05;13.15;;;11.20;;
30543;SDS011;43388;46.308;4.600;2023-06-14T07:35:31;15.70;;;11.13;;
30543;SDS011;43388;46.308;4.600;2023-06-14T07:37:57;14.25;;;11.38;;
30543;SDS011;43388;46.308;4.600;2023-06-14T07:40:23;17.70;;;10.95;;
30543;SDS011;43388;46.308;4.600;2023-06-14T07:42:49;14.57;;;12.00;;
30543;SDS011;43388;46.308;4.600;2023-06-14T07:45:15;16.77;;;11.65;;
30543;SDS011;43388;46.308;4.600;2023-06-14T07:47:41;16.20;;;11.50;;
30543;SDS011;43388;46.308;4.600;2023-06-14T07:50:08;13.90;;;11.23;;
30543;SDS011;43388;46.308;4.600;2023-06-14T07:52:34;16.55;;;13.05;;
30543;SDS011;43388;46.308;4.600;2023-06-14T07:55:00;12.38;;;11.18;;
30543;SDS011;43388;46.308;4.600;2023-06-14T07:57:26;15.38;;;10.48;;
30543;SDS011;43388;46.308;4.600;2023-06-14T07:59:53;11.60;;;10.50;;
30543;SDS011;43388;46.308;4.600;2023-06-14T08:02:19;39.38;;;11.25;;
30543;SDS011;43388;46.308;4.600;2023-06-14T08:04:45;13.65;;;10.00;;
30543;SDS011;43388;46.308;4.600;2023-06-14T08:07:13;11.43;;;8.70;;
30543;SDS011;43388;46.308;4.600;2023-06-14T08:09:39;12.32;;;8.50;;
30543;SDS011;43388;46.308;4.600;2023-06-14T08:12:06;12.02;;;8.60;;
30543;SDS011;43388;46.308;4.600;2023-06-14T08:14:34;12.02;;;9.52;;
30543;SDS011;43388;46.308;4.600;2023-06-14T08:17:00;10.05;;;9.05;;
30543;SDS011;43388;46.308;4.600;2023-06-14T08:19:27;14.30;;;9.13;;
30543;SDS011;43388;46.308;4.600;2023-06-14T08:21:53;9.73;;;8.77;;
30543;SDS011;43388;46.308;4.600;2023-06-14T08:24:23;10.55;;;7.47;;
30543;SDS011;43388;46.308;4.600;2023-06-14T08:26:49;13.95;;;8.50;;
30543;SDS011;43388;46.308;4.600;2023-06-14T08:29:16;8.88;;;7.50;;
30543;SDS011;43388;46.308;4.600;2023-06-14T08:31:42;10.02;;;7.38;;
30543;SDS011;43388;46.308;4.600;2023-06-14T08:34:08;11.60;;;8.30;;
30543;SDS011;43388;46.308;4.600;2023-06-14T08:36:34;8.30;;;7.60;;
30543;SDS011;43388;46.308;4.600;2023-06-14T08:39:01;8.70;;;7.90;;
30543;SDS011;43388;46.308;4.600;2023-06-14T08:41:27;12.30;;;8.32;;
30543;SDS011;43388;46.308;4.600;2023-06-14T08:43:54;10.20;;;8.35;;
30543;SDS011;43388;46.308;4.600;2023-06-14T08:46:20;9.90;;;7.00;;
30543;SDS011;43388;46.308;4.600;2023-06-14T08:48:51;8.50;;;7.47;;
30543;SDS011;43388;46.308;4.600;2023-06-14T08:51:18;9.00;;;8.18;;
30543;SDS011;43388;46.308;4.600;2023-06-14T08:53:44;9.23;;;7.15;;
30543;SDS011;43388;46.308;4.600;2023-06-14T08:56:10;11.13;;;8.10;;
30543;SDS011;43388;46.308;4.600;2023-06-14T08:58:44;12.60;;;7.85;;
30543;SDS011;43388;46.308;4.600;2023-06-14T09:01:11;8.65;;;6.60;;
30543;SDS011;43388;46.308;4.600;2023-06-14T09:03:39;8.45;;;6.50;;
30543;SDS011;43388;46.308;4.600;2023-06-14T09:06:06;9.52;;;7.32;;
30543;SDS011;43388;46.308;4.600;2023-06-14T09:08:35;8.48;;;6.68;;
30543;SDS011;43388;46.308;4.600;2023-06-14T09:11:01;10.68;;;6.82;;
30543;SDS011;43388;46.308;4.600;2023-06-14T09:13:27;10.50;;;6.60;;
30543;SDS011;43388;46.308;4.600;2023-06-14T09:15:53;18.35;;;7.93;;
30543;SDS011;43388;46.308;4.600;2023-06-14T09:18:19;11.57;;;7.25;;
30543;SDS011;43388;46.308;4.600;2023-06-14T09:20:46;12.38;;;7.47;;
30543;SDS011;43388;46.308;4.600;2023-06-14T09:23:13;9.73;;;6.95;;
30543;SDS011;43388;46.308;4.600;2023-06-14T09:25:42;7.93;;;5.55;;
30543;SDS011;43388;46.308;4.600;2023-06-14T09:28:08;8.38;;;6.43;;
30543;SDS011;43388;46.308;4.600;2023-06-14T09:30:36;8.90;;;6.70;;
30543;SDS011;43388;46.308;4.600;2023-06-14T09:33:02;8.45;;;6.18;;
30543;SDS011;43388;46.308;4.600;2023-06-14T09:35:28;7.82;;;6.68;;
30543;SDS011;43388;46.308;4.600;2023-06-14T09:37:56;6.50;;;5.95;;
30543;SDS011;43388;46.308;4.600;2023-06-14T09:40:23;8.05;;;6.22;;
30543;SDS011;43388;46.308;4.600;2023-06-14T09:42:49;10.73;;;6.70;;
30543;SDS011;43388;46.308;4.600;2023-06-14T09:45:15;6.63;;;5.72;;
30543;SDS011;43388;46.308;4.600;2023-06-14T09:47:47;12.73;;;6.45;;
30543;SDS011;43388;46.308;4.600;2023-06-14T09:50:13;7.78;;;6.22;;
30543;SDS011;43388;46.308;4.600;2023-06-14T09:52:39;7.75;;;5.97;;
30543;SDS011;43388;46.308;4.600;2023-06-14T09:55:07;8.50;;;5.65;;
30543;SDS011;43388;46.308;4.600;2023-06-14T09:57:37;8.20;;;6.30;;
30543;SDS011;43388;46.308;4.600;2023-06-14T10:00:06;10.15;;;5.78;;
30543;SDS011;43388;46.308;4.600;2023-06-14T10:02:36;8.32;;;5.47;;
30543;SDS011;43388;46.308;4.600;2023-06-14T10:05:05;6.30;;;4.93;;
30543;SDS011;43388;46.308;4.600;2023-06-14T10:07:32;8.40;;;5.55;;
30543;SDS011;43388;46.308;4.600;2023-06-14T10:10:01;7.47;;;5.50;;
30543;SDS011;43388;46.308;4.600;2023-06-14T10:12:27;10.52;;;5.40;;
30543;SDS011;43388;46.308;4.600;2023-06-14T10:14:53;5.32;;;4.82;;
30543;SDS011;43388;46.308;4.600;2023-06-14T10:19:50;6.63;;;5.43;;
30543;SDS011;43388;46.308;4.600;2023-06-14T10:22:19;6.43;;;5.25;;
30543;SDS011;43388;46.308;4.600;2023-06-14T10:24:48;8.32;;;5.20;;
30543;SDS011;43388;46.308;4.600;2023-06-14T10:27:15;4.80;;;4.35;;
30543;SDS011;43388;46.308;4.600;2023-06-14T10:32:26;10.82;;;5.35;;
30543;SDS011;43388;46.308;4.600;2023-06-14T10:34:59;7.75;;;5.10;;
30543;SDS011;43388;46.308;4.600;2023-06-14T10:37:26;5.32;;;4.82;;
30543;SDS011;43388;46.308;4.600;2023-06-14T10:39:52;6.40;;;4.90;;
30543;SDS011;43388;46.308;4.600;2023-06-14T10:42:19;6.80;;;5.00;;
30543;SDS011;43388;46.308;4.600;2023-06-14T10:49:44;6.35;;;4.43;;
30543;SDS011;43388;46.308;4.600;2023-06-14T10:52:17;6.78;;;4.75;;
30543;SDS011;43388;46.308;4.600;2023-06-14T10:55:05;5.25;;;4.75;;
30543;SDS011;43388;46.308;4.600;2023-06-14T10:57:38;9.95;;;4.65;;
30543;SDS011;43388;46.308;4.600;2023-06-14T11:00:05;5.00;;;4.22;;
30543;SDS011;43388;46.308;4.600;2023-06-14T11:05:16;18.30;;;6.13;;
30543;SDS011;43388;46.308;4.600;2023-06-14T11:07:55;8.45;;;4.70;;
30543;SDS011;43388;46.308;4.600;2023-06-14T11:12:50;11.30;;;4.68;;
30543;SDS011;43388;46.308;4.600;2023-06-14T11:15:17;6.72;;;3.85;;
30543;SDS011;43388;46.308;4.600;2023-06-14T11:17:50;10.63;;;4.35;;
30543;SDS011;43388;46.308;4.600;2023-06-14T11:20:18;9.98;;;4.35;;
30543;SDS011;43388;46.308;4.600;2023-06-14T11:22:44;5.50;;;4.68;;
30543;SDS011;43388;46.308;4.600;2023-06-14T11:25:11;9.25;;;5.47;;
30543;SDS011;43388;46.308;4.600;2023-06-14T11:27:37;6.30;;;4.15;;
30543;SDS011;43388;46.308;4.600;2023-06-14T11:30:06;11.77;;;4.43;;
30543;SDS011;43388;46.308;4.600;2023-06-14T11:32:33;7.53;;;5.03;;
30543;SDS011;43388;46.308;4.600;2023-06-14T11:34:59;5.22;;;4.20;;
30543;SDS011;43388;46.308;4.600;2023-06-14T11:37:26;6.18;;;4.28;;
30543;SDS011;43388;46.308;4.600;2023-06-14T11:39:57;5.25;;;4.22;;
30543;SDS011;43388;46.308;4.600;2023-06-14T11:42:24;11.65;;;4.22;;
30543;SDS011;43388;46.308;4.600;2023-06-14T11:44:50;6.47;;;4.30;;
30543;SDS011;43388;46.308;4.600;2023-06-14T11:47:16;4.70;;;4.30;;
30543;SDS011;43388;46.308;4.600;2023-06-14T11:49:42;5.00;;;3.90;;
30543;SDS011;43388;46.308;4.600;2023-06-14T11:52:08;6.20;;;4.30;;
30543;SDS011;43388;46.308;4.600;2023-06-14T11:54:34;5.80;;;4.30;;
30543;SDS011;43388;46.308;4.600;2023-06-14T11:57:00;15.10;;;4.70;;
30543;SDS011;43388;46.308;4.600;2023-06-14T11:59:27;7.40;;;4.07;;
30543;SDS011;43388;46.308;4.600;2023-06-14T12:01:53;10.52;;;4.10;;
30543;SDS011;43388;46.308;4.600;2023-06-14T12:04:29;6.28;;;3.97;;
30543;SDS011;43388;46.308;4.600;2023-06-14T12:06:55;10.63;;;4.43;;
30543;SDS011;43388;46.308;4.600;2023-06-14T12:09:22;6.10;;;3.70;;
30543;SDS011;43388;46.308;4.600;2023-06-14T12:11:51;7.97;;;3.65;;
30543;SDS011;43388;46.308;4.600;2023-06-14T12:14:31;6.40;;;3.70;;
30543;SDS011;43388;46.308;4.600;2023-06-14T12:17:04;3.97;;;3.67;;
30543;SDS011;43388;46.308;4.600;2023-06-14T12:19:31;6.18;;;3.80;;
30543;SDS011;43388;46.308;4.600;2023-06-14T12:22:01;5.72;;;3.92;;
30543;SDS011;43388;46.308;4.600;2023-06-14T12:24:29;9.13;;;3.60;;
30543;SDS011;43388;46.308;4.600;2023-06-14T12:26:59;3.80;;;3.42;;
30543;SDS011;43388;46.308;4.600;2023-06-14T12:29:25;13.30;;;4.47;;
30543;SDS011;43388;46.308;4.600;2023-06-14T12:31:51;4.63;;;3.38;;
30543;SDS011;43388;46.308;4.600;2023-06-14T12:34:19;5.82;;;3.50;;
30543;SDS011;43388;46.308;4.600;2023-06-14T12:36:45;4.22;;;3.70;;
30543;SDS011;43388;46.308;4.600;2023-06-14T12:39:12;7.22;;;3.88;;
30543;SDS011;43388;46.308;4.600;2023-06-14T12:41:38;7.50;;;3.83;;
30543;SDS011;43388;46.308;4.600;2023-06-14T12:44:06;4.95;;;3.30;;
30543;SDS011;43388;46.308;4.600;2023-06-14T12:46:33;10.15;;;3.72;;
30543;SDS011;43388;46.308;4.600;2023-06-14T12:49:00;4.18;;;3.05;;
30543;SDS011;43388;46.308;4.600;2023-06-14T12:51:26;7.72;;;3.17;;
30543;SDS011;43388;46.308;4.600;2023-06-14T12:53:52;4.10;;;3.40;;
30543;SDS011;43388;46.308;4.600;2023-06-14T12:56:18;6.35;;;3.40;;
30543;SDS011;43388;46.308;4.600;2023-06-14T12:58:44;5.70;;;2.95;;
30543;SDS011;43388;46.308;4.600;2023-06-14T13:01:10;5.40;;;3.47;;
30543;SDS011;43388;46.308;4.600;2023-06-14T13:03:36;5.30;;;3.78;;
30543;SDS011;43388;46.308;4.600;2023-06-14T13:06:02;8.57;;;3.55;;
30543;SDS011;43388;46.308;4.600;2023-06-14T13:08:29;6.63;;;3.10;;
30543;SDS011;43388;46.308;4.600;2023-06-14T13:10:56;4.57;;;2.85;;
30543;SDS011;43388;46.308;4.600;2023-06-14T13:13:22;5.53;;;2.80;;
30543;SDS011;43388;46.308;4.600;2023-06-14T13:15:48;4.05;;;2.83;;
30543;SDS011;43388;46.308;4.600;2023-06-14T13:18:15;2.97;;;2.55;;
30543;SDS011;43388;46.308;4.600;2023-06-14T13:20:41;3.50;;;3.20;;
30543;SDS011;43388;46.308;4.600;2023-06-14T13:23:08;5.43;;;2.90;;
30543;SDS011;43388;46.308;4.600;2023-06-14T13:25:34;5.32;;;3.53;;
30543;SDS011;43388;46.308;4.600;2023-06-14T13:28:00;7.03;;;4.20;;
30543;SDS011;43388;46.308;4.600;2023-06-14T13:30:27;9.77;;;3.53;;
30543;SDS011;43388;46.308;4.600;2023-06-14T13:32:53;6.60;;;3.10;;
30543;SDS011;43388;46.308;4.600;2023-06-14T13:35:20;3.13;;;2.60;;
30543;SDS011;43388;46.308;4.600;2023-06-14T13:37:47;2.90;;;2.70;;
30543;SDS011;43388;46.308;4.600;2023-06-14T13:40:13;6.35;;;3.05;;
30543;SDS011;43388;46.308;4.600;2023-06-14T13:42:39;7.18;;;3.28;;
30543;SDS011;43388;46.308;4.600;2023-06-14T13:45:05;5.93;;;2.90;;
30543;SDS011;43388;46.308;4.600;2023-06-14T13:47:31;3.13;;;2.75;;
30543;SDS011;43388;46.308;4.600;2023-06-14T13:49:58;7.13;;;2.72;;
30543;SDS011;43388;46.308;4.600;2023-06-14T13:52:24;6.10;;;2.90;;
30543;SDS011;43388;46.308;4.600;2023-06-14T13:54:50;5.70;;;3.70;;
30543;SDS011;43388;46.308;4.600;2023-06-14T13:57:16;7.30;;;2.80;;
30543;SDS011;43388;46.308;4.600;2023-06-14T13:59:43;3.97;;;3.00;;
30543;SDS011;43388;46.308;4.600;2023-06-14T14:02:09;5.00;;;2.92;;
30543;SDS011;43388;46.308;4.600;2023-06-14T14:04:36;6.78;;;3.10;;
30543;SDS011;43388;46.308;4.600;2023-06-14T14:07:05;7.40;;;2.90;;
30543;SDS011;43388;46.308;4.600;2023-06-14T14:09:32;10.35;;;3.25;;
30543;SDS011;43388;46.308;4.600;2023-06-14T14:11:59;3.90;;;3.00;;
30543;SDS011;43388;46.308;4.600;2023-06-14T14:14:25;3.70;;;2.90;;
30543;SDS011;43388;46.308;4.600;2023-06-14T14:16:52;10.77;;;3.50;;
30543;SDS011;43388;46.308;4.600;2023-06-14T14:19:19;10.35;;;3.60;;
30543;SDS011;43388;46.308;4.600;2023-06-14T14:21:46;8.00;;;3.08;;
30543;SDS011;43388;46.308;4.600;2023-06-14T14:24:12;6.20;;;3.47;;
30543;SDS011;43388;46.308;4.600;2023-06-14T14:26:38;4.93;;;3.00;;
30543;SDS011;43388;46.308;4.600;2023-06-14T14:29:04;6.00;;;3.00;;
30543;SDS011;43388;46.308;4.600;2023-06-14T14:31:31;6.20;;;2.60;;
30543;SDS011;43388;46.308;4.600;2023-06-14T14:33:57;4.18;;;3.00;;
30543;SDS011;43388;46.308;4.600;2023-06-14T14:36:23;7.85;;;2.53;;
30543;SDS011;43388;46.308;4.600;2023-06-14T14:38:49;3.95;;;2.72;;
30543;SDS011;43388;46.308;4.600;2023-06-14T14:41:16;5.65;;;3.10;;
30543;SDS011;43388;46.308;4.600;2023-06-14T14:43:43;3.97;;;3.00;;
30543;SDS011;43388;46.308;4.600;2023-06-14T14:46:09;9.85;;;3.15;;
30543;SDS011;43388;46.308;4.600;2023-06-14T14:48:35;3.83;;;2.75;;
30543;SDS011;43388;46.308;4.600;2023-06-14T14:51:01;5.10;;;2.92;;
30543;SDS011;43388;46.308;4.600;2023-06-14T14:53:27;7.05;;;3.13;;
30543;SDS011;43388;46.308;4.600;2023-06-14T14:55:53;7.07;;;2.92;;
30543;SDS011;43388;46.308;4.600;2023-06-14T14:58:19;3.55;;;2.72;;
30543;SDS011;43388;46.308;4.600;2023-06-14T15:00:45;3.47;;;2.90;;
30543;SDS011;43388;46.308;4.600;2023-06-14T15:03:12;4.80;;;2.78;;
30543;SDS011;43388;46.308;4.600;2023-06-14T15:05:38;8.52;;;3.00;;